Time,TemperatureC,DewpointC,PressurehPa,WindDirection,WindDirectionDegrees,WindSpeedKMH,WindSpeedGustKMH,Humidity,HourlyPrecipMM,Conditions,Clouds,dailyrainMM,SolarRadiationWatts/m^2,UVIndex,SoftwareType,DateUTC
2022-07-03 00:03:33,13.9,13.3,1017.3,NE,45,0,0,62.8,0.0,,,0.0,6,0,n/a,2022-07-02T22:03:33Z
2022-07-03 00:09:36,13.8,13.4,1017.5,NE,45,0,0,63.3,0.0,,,0.0,8,0,n/a,2022-07-02T22:09:36Z
2022-07-03 00:12:36,13.7,13.4,1017.5,NE,45,0,0,63.6,0.0,,,0.0,6,0,n/a,2022-07-02T22:12:36Z
2022-07-03 00:18:33,13.5,13.3,1017.5,NE,45,0,0,63.5,0.0,,,0.0,8,0,n/a,2022-07-02T22:18:33Z
2022-07-03 00:24:36,13.5,13,1017.5,NE,45,0,0,63.3,0.0,,,0.0,8,0,n/a,2022-07-02T22:24:36Z
2022-07-03 00:27:38,13.4,13.1,1017.5,NE,45,0,0,64.1,0.0,,,0.0,8,0,n/a,2022-07-02T22:27:38Z
2022-07-03 00:33:37,13.3,13,1017.5,NE,45,0,0,64.1,0.0,,,0.0,10,0,n/a,2022-07-02T22:33:37Z
2022-07-03 00:39:36,12.9,13,1017.5,NE,45,0,0,64.9,0.0,,,0.0,10,0,n/a,2022-07-02T22:39:36Z
2022-07-03 00:42:37,12.9,13,1017.5,NE,45,0,0,65.3,0.0,,,0.0,10,0,n/a,2022-07-02T22:42:37Z
2022-07-03 00:48:36,12.7,12.9,1017.5,NE,45,0,0,65.8,0.0,,,0.0,10,0,n/a,2022-07-02T22:48:36Z
2022-07-03 00:54:33,12.6,12.8,1017.5,North,0,0,0,65.9,0.0,,,0.0,10,0,n/a,2022-07-02T22:54:33Z
2022-07-03 00:57:37,12.3,12.8,1017.5,NE,45,0,0,67,0.0,,,0.0,12,0,n/a,2022-07-02T22:57:37Z
2022-07-03 01:03:36,12.3,12.6,1017.5,NE,45,0,0,66.9,0.0,,,0.0,12,0,n/a,2022-07-02T23:03:36Z
2022-07-03 01:09:32,12.3,12.7,1017.5,ENE,67,0.2,0.7,67.8,0.0,,,0.0,12,0,n/a,2022-07-02T23:09:32Z
2022-07-03 01:12:37,12.5,12.7,1017.5,ENE,67,0.3,0.6,67.9,0.0,,,0.0,14,0,n/a,2022-07-02T23:12:37Z
2022-07-03 01:18:32,12.3,12.7,1017.5,ENE,67,0,0,67.6,0.0,,,0.0,12,0,n/a,2022-07-02T23:18:32Z
2022-07-03 01:24:37,12,12.4,1017.5,ENE,67,0,0,67,0.0,,,0.0,14,0,n/a,2022-07-02T23:24:37Z
2022-07-03 01:27:36,12.1,12.3,1017.5,ENE,67,0,0,67.4,0.0,,,0.0,14,0,n/a,2022-07-02T23:27:36Z
2022-07-03 01:33:37,11.9,12.3,1017.5,ENE,67,0,0,68,0.0,,,0.0,14,0,n/a,2022-07-02T23:33:37Z
2022-07-03 01:39:36,11.6,12.2,1017.5,ENE,67,0,0,68.4,0.0,,,0.0,12,0,n/a,2022-07-02T23:39:36Z
2022-07-03 01:42:32,11.7,12.2,1017.5,ENE,67,0,0,68.7,0.0,,,0.0,12,0,n/a,2022-07-02T23:42:32Z
2022-07-03 01:48:37,11.5,12.3,1017.5,ENE,67,0.3,0.6,69.2,0.0,,,0.0,14,0,n/a,2022-07-02T23:48:37Z
2022-07-03 01:54:36,11.3,12.1,1017.5,NE,54,0.7,1.3,69,0.0,,,0.0,14,0,n/a,2022-07-02T23:54:36Z
2022-07-03 01:57:36,11.3,12,1017.5,NE,45,0,0,69.6,0.0,,,0.0,12,0,n/a,2022-07-02T23:57:36Z
2022-07-03 02:03:37,11.2,11.8,1017.5,NE,45,0.6,2,69,0.0,,,0.0,12,0,n/a,2022-07-03T00:03:37Z
2022-07-03 02:09:36,11.4,11.9,1017.5,East,90,0,0,69.4,0.0,,,0.0,12,0,n/a,2022-07-03T00:09:36Z
2022-07-03 02:12:37,11.4,12,1017.5,East,90,0.5,0.6,70,0.0,,,0.0,12,0,n/a,2022-07-03T00:12:37Z
2022-07-03 02:18:36,11.1,11.8,1017.3,NE,54,0.5,1,69.7,0.0,,,0.0,22,0,n/a,2022-07-03T00:18:36Z
2022-07-03 02:24:36,11.1,11.8,1017.3,NE,45,0,0,70,0.0,,,0.0,18,0,n/a,2022-07-03T00:24:36Z
2022-07-03 02:27:37,11.1,11.8,1017.0,NE,45,0,0,70.2,0.0,,,0.0,18,0,n/a,2022-07-03T00:27:37Z
2022-07-03 02:33:36,11.1,11.8,1017.0,ENE,67,0,0,71.1,0.0,,,0.0,16,0,n/a,2022-07-03T00:33:36Z
2022-07-03 02:39:37,11.1,11.8,1017.3,ENE,62,1.8,3.3,71.1,0.0,,,0.0,14,0,n/a,2022-07-03T00:39:37Z
2022-07-03 02:48:36,11.2,11.6,1017.0,NE,45,0,0,70.5,0.0,,,0.0,18,0,n/a,2022-07-03T00:48:36Z
2022-07-03 02:54:36,11,11.6,1017.0,NE,45,0,0,70.9,0.0,,,0.0,18,0,n/a,2022-07-03T00:54:36Z
2022-07-03 02:57:33,10.7,11.5,1017.0,NE,45,0,0,70.9,0.0,,,0.0,18,0,n/a,2022-07-03T00:57:33Z
2022-07-03 03:03:36,10.8,11.4,1017.3,NE,45,0,0,71,0.0,,,0.0,14,0,n/a,2022-07-03T01:03:36Z
2022-07-03 03:09:37,11,11.5,1017.3,NE,45,0.1,0.5,71.6,0.0,,,0.0,22,0,n/a,2022-07-03T01:09:37Z
2022-07-03 03:12:32,10.7,11.3,1017.0,NE,45,0,0,71.5,0.0,,,0.0,18,0,n/a,2022-07-03T01:12:32Z
2022-07-03 03:18:37,10.4,11.4,1017.0,NE,45,0,0,72.5,0.0,,,0.0,18,0,n/a,2022-07-03T01:18:37Z
2022-07-03 03:24:37,10.5,11.6,1017.0,NE,45,0.3,0.7,73.9,0.0,,,0.0,24,0,n/a,2022-07-03T01:24:37Z
2022-07-03 03:27:33,10.3,11.5,1017.0,North,0,0.6,0.6,74,0.0,,,0.0,22,0,n/a,2022-07-03T01:27:33Z
2022-07-03 03:33:36,10.3,11.2,1017.0,ENE,67,0.6,1.3,73.5,0.0,,,0.0,26,0,n/a,2022-07-03T01:33:36Z
2022-07-03 03:39:36,10.4,11.2,1016.7,East,90,0,0,73.1,0.0,,,0.0,88,0,n/a,2022-07-03T01:39:36Z
2022-07-03 03:42:36,10.4,11.2,1016.7,East,90,0,0,73.2,0.0,,,0.0,76,0,n/a,2022-07-03T01:42:36Z
2022-07-03 03:48:33,10.3,11.1,1016.7,East,90,0,0,72.8,0.0,,,0.0,92,0,n/a,2022-07-03T01:48:33Z
2022-07-03 03:54:33,10.2,11.2,1016.7,East,90,0,0,73.4,0.0,,,0.0,90,0,n/a,2022-07-03T01:54:33Z
2022-07-03 03:57:36,9.9,11,1016.7,East,90,0,0,73.1,0.0,,,0.0,84,0,n/a,2022-07-03T01:57:36Z
2022-07-03 04:03:37,9.9,11.1,1016.7,North,0,0,0,74.5,0.0,,,0.0,68,0,n/a,2022-07-03T02:03:37Z
2022-07-03 04:09:32,9.8,11,1016.7,East,90,1.1,2,74.3,0.0,,,0.0,52,0,n/a,2022-07-03T02:09:32Z
2022-07-03 04:12:36,9.7,10.9,1016.7,East,90,0,0,74.2,0.0,,,0.0,74,0,n/a,2022-07-03T02:12:36Z
2022-07-03 04:18:37,9.7,10.8,1016.7,East,90,0,0,74.1,0.0,,,0.0,74,0,n/a,2022-07-03T02:18:37Z
2022-07-03 04:24:36,9.6,10.8,1016.7,East,90,0,0,74.2,0.0,,,0.0,78,0,n/a,2022-07-03T02:24:36Z
2022-07-03 04:27:37,9.4,10.6,1016.7,East,90,0,0,73.6,0.0,,,0.0,58,0,n/a,2022-07-03T02:27:37Z
2022-07-03 04:33:36,9.4,10.6,1016.7,East,90,0,0,74,0.0,,,0.0,90,0,n/a,2022-07-03T02:33:36Z
2022-07-03 04:39:33,9.3,10.7,1016.7,East,90,0,0,75.4,0.0,,,0.0,74,0,n/a,2022-07-03T02:39:33Z
2022-07-03 04:42:37,9.3,10.5,1016.7,East,90,0,0,74.7,0.0,,,0.0,74,0,n/a,2022-07-03T02:42:37Z
2022-07-03 04:48:37,9.1,10.6,1016.7,East,90,0,0,75.7,0.0,,,0.0,68,0,n/a,2022-07-03T02:48:37Z
2022-07-03 04:54:36,9.1,10.6,1016.5,ENE,67,0,0,76.2,0.0,,,0.0,66,0,n/a,2022-07-03T02:54:36Z
2022-07-03 04:57:32,9.1,10.4,1016.5,ENE,67,0,0,75.7,0.0,,,0.0,68,0,n/a,2022-07-03T02:57:32Z
2022-07-03 05:03:37,9.2,10.3,1016.7,ENE,67,0,0,75.6,0.0,,,0.0,82,0,n/a,2022-07-03T03:03:37Z
2022-07-03 05:09:32,9.1,10.5,1016.5,ENE,67,0.2,0.7,76.2,0.0,,,0.0,90,0,n/a,2022-07-03T03:09:32Z
2022-07-03 05:12:32,9.1,10.5,1016.5,ENE,67,0,0,76.8,0.0,,,0.0,74,0,n/a,2022-07-03T03:12:32Z
2022-07-03 05:18:36,9.2,10.7,1016.5,ENE,67,0,0,78,0.0,,,0.0,90,0,n/a,2022-07-03T03:18:36Z
2022-07-03 05:24:36,9.2,10.6,1016.5,ENE,67,0.4,0.7,77.4,0.0,,,0.0,116,0,n/a,2022-07-03T03:24:36Z
2022-07-03 05:27:32,9.1,10.5,1016.5,ENE,67,0,0,77.1,0.0,,,0.0,74,0,n/a,2022-07-03T03:27:32Z
2022-07-03 05:33:37,9.3,10.4,1016.5,ENE,67,0,0,76.4,0.0,,,0.0,106,0,n/a,2022-07-03T03:33:37Z
2022-07-03 05:36:36,9.3,10.5,1016.5,ENE,67,0,0,77,0.0,,,0.0,120,0,n/a,2022-07-03T03:36:36Z
2022-07-03 05:42:37,9.3,10.4,1016.5,ENE,67,0,0,76.9,0.0,,,0.0,108,0,n/a,2022-07-03T03:42:37Z
2022-07-03 05:48:36,9.4,10.7,1016.5,ENE,67,0,0,78.1,0.0,,,0.0,114,0,n/a,2022-07-03T03:48:36Z
2022-07-03 05:54:32,9.5,10.7,1016.5,ENE,67,0,0,77.9,0.0,,,0.0,130,0,n/a,2022-07-03T03:54:32Z
2022-07-03 05:57:37,9.7,10.7,1016.5,ENE,67,0,0,78,0.0,,,0.0,124,0,n/a,2022-07-03T03:57:37Z
2022-07-03 06:03:36,9.9,11,1016.5,ENE,67,0,0,78.6,0.0,,,0.0,148,0,n/a,2022-07-03T04:03:36Z
2022-07-03 06:09:33,10.1,11,1016.5,NE,38,1.6,2.6,78.4,0.0,,,0.0,136,0,n/a,2022-07-03T04:09:33Z
2022-07-03 06:12:37,10.3,11.2,1016.5,East,90,0,0,78.5,0.0,,,0.0,142,0,n/a,2022-07-03T04:12:37Z
2022-07-03 06:18:36,10.5,11.9,1016.5,East,90,0,0,80.4,0.0,,,0.0,246,0,n/a,2022-07-03T04:18:36Z
2022-07-03 06:24:33,11.2,12.6,1016.7,East,90,0.6,1.9,80,0.0,,,0.0,226,0,n/a,2022-07-03T04:24:33Z
2022-07-03 06:27:37,12.7,12.9,1016.5,East,90,1.1,1.3,77.5,0.0,,,0.0,334,0,n/a,2022-07-03T04:27:37Z
2022-07-03 06:33:36,12.9,13,1016.7,ENE,77,0.9,2,75,0.0,,,0.0,420,0,n/a,2022-07-03T04:33:36Z
2022-07-03 06:39:37,13.9,13.3,1016.7,NE,37,0.5,1.3,71.4,0.0,,,0.0,468,0,n/a,2022-07-03T04:39:37Z
2022-07-03 06:42:33,14.5,13.4,1016.5,NE,45,0,0,69.1,0.0,,,0.0,454,0,n/a,2022-07-03T04:42:33Z
2022-07-03 06:48:36,15.1,13.8,1016.5,East,83,2.8,3.3,67.5,0.0,,,0.0,474,0,n/a,2022-07-03T04:48:36Z
2022-07-03 06:54:37,16,14,1016.5,East,90,0,0,65.7,0.0,,,0.0,664,0,n/a,2022-07-03T04:54:37Z
2022-07-03 06:57:37,16.4,14.3,1016.5,North,0,0.8,1,64.6,0.0,,,0.0,686,0,n/a,2022-07-03T04:57:37Z
2022-07-03 07:03:32,16.9,14.6,1016.5,ENE,59,1.6,1.9,63.8,0.0,,,0.0,678,0,n/a,2022-07-03T05:03:32Z
2022-07-03 07:09:37,17.3,14.8,1016.5,North,8,0.7,1.2,62.6,0.0,,,0.0,530,0,n/a,2022-07-03T05:09:37Z
2022-07-03 07:12:33,18.2,15,1016.5,North,0,0.6,0.7,61.7,0.0,,,0.0,416,0,n/a,2022-07-03T05:12:33Z
2022-07-03 07:18:33,18.2,15.3,1016.5,ESE,121,1,1.3,61.2,0.0,,,0.0,340,0,n/a,2022-07-03T05:18:33Z
2022-07-03 07:24:32,19.2,15.6,1016.5,NE,45,0.8,2.5,59.7,0.0,,,0.0,224,0,n/a,2022-07-03T05:24:32Z
2022-07-03 07:27:36,19.7,16,1016.5,North,0,0.3,0.7,59,0.0,,,0.0,176,0,n/a,2022-07-03T05:27:36Z
2022-07-03 07:33:36,20.4,16.3,1016.5,ENE,57,0.8,1.5,58.9,0.0,,,0.0,154,0,n/a,2022-07-03T05:33:36Z
2022-07-03 07:39:37,21.1,16.2,1016.7,NE,49,1.5,1.9,56.5,0.0,,,0.0,146,0,n/a,2022-07-03T05:39:37Z
2022-07-03 07:42:37,21.7,16.1,1016.5,East,90,2.1,2.6,54.8,0.0,,,0.0,104,0,n/a,2022-07-03T05:42:37Z
2022-07-03 07:48:36,22.1,16,1016.7,ENE,71,1.5,3.1,53.8,0.0,,,0.0,112,0,n/a,2022-07-03T05:48:36Z
2022-07-03 07:53:39,22.7,15.8,1016.7,East,79,3.2,5.2,52.5,0.0,,,0.0,108,0,n/a,2022-07-03T05:53:39Z
2022-07-03 07:56:42,22.8,16,1016.7,East,90,0.9,1.1,53.2,0.0,,,0.0,122,0,n/a,2022-07-03T05:56:42Z
2022-07-03 08:03:04,22.6,15.9,1016.7,East,90,1.6,2.1,53.2,0.0,,,0.0,194,0,n/a,2022-07-03T06:03:04Z
2022-07-03 08:09:00,22,15.5,1017.0,East,90,0.6,0.6,53.5,0.0,,,0.0,464,0,n/a,2022-07-03T06:09:00Z
2022-07-03 08:12:04,21.7,15.7,1017.0,ENE,76,5.1,5.9,54.8,0.0,,,0.0,500,0,n/a,2022-07-03T06:12:04Z
2022-07-03 08:18:04,21.5,15.5,1017.0,ENE,76,3.1,4.6,55,0.0,,,0.0,520,0,n/a,2022-07-03T06:18:04Z
2022-07-03 08:24:04,22,15.4,1017.0,ENE,67,1.3,2,54.6,0.0,,,0.0,174,0,n/a,2022-07-03T06:24:04Z
2022-07-03 08:27:01,21.7,15.6,1016.7,North,0,2.6,2.6,55.2,0.0,,,0.0,222,0,n/a,2022-07-03T06:27:01Z
2022-07-03 08:33:01,21.5,15.3,1017.0,NE,42,1.6,2,54.8,0.0,,,0.0,168,0,n/a,2022-07-03T06:33:01Z
2022-07-03 08:39:00,21.7,15.6,1016.7,East,89,1.7,3.3,56,0.0,,,0.0,132,0,n/a,2022-07-03T06:39:00Z
2022-07-03 08:42:04,21.5,15.5,1016.7,ESE,112,2,2.1,56,0.0,,,0.0,136,0,n/a,2022-07-03T06:42:04Z
2022-07-03 08:48:04,21.5,15.4,1016.7,South,190,3.2,3.9,56.2,0.0,,,0.0,102,0,n/a,2022-07-03T06:48:04Z
2022-07-03 08:54:04,21,15.2,1016.7,ESE,110,1.9,2.6,56.4,0.0,,,0.0,74,0,n/a,2022-07-03T06:54:04Z
2022-07-03 09:03:04,20.7,15.5,1016.5,SW,214,1.3,1.9,57.3,0.0,,,0.0,62,0,n/a,2022-07-03T07:03:04Z
2022-07-03 09:06:04,20.8,15.4,1016.5,ESE,102,2.4,2.6,57.3,0.0,,,0.0,50,0,n/a,2022-07-03T07:06:04Z
2022-07-03 09:12:01,20.9,15.5,1016.5,South,180,1.8,2,58,0.0,,,0.0,48,0,n/a,2022-07-03T07:12:01Z
2022-07-03 09:18:04,20.7,15.6,1016.5,NW,304,4.6,5.4,58.6,0.0,,,0.0,50,0,n/a,2022-07-03T07:18:04Z
2022-07-03 09:24:00,20.8,15.8,1016.5,SSW,208,4.1,5.3,59.2,0.0,,,0.0,50,0,n/a,2022-07-03T07:24:00Z
2022-07-03 09:27:04,20.8,15.6,1016.5,SW,225,0.6,0.7,58.7,0.0,,,0.0,52,0,n/a,2022-07-03T07:27:04Z
2022-07-03 09:33:04,20.8,15.7,1016.5,NE,55,4.6,5.9,59.4,0.0,,,0.0,52,0,n/a,2022-07-03T07:33:04Z
2022-07-03 09:39:00,20.8,15.5,1016.5,NE,37,1.8,2.6,58.9,0.0,,,0.0,52,0,n/a,2022-07-03T07:39:00Z
2022-07-03 09:42:04,20.9,15.6,1016.5,North,0,5.2,5.3,59.2,0.0,,,0.0,54,0,n/a,2022-07-03T07:42:04Z
2022-07-03 09:48:04,20.7,15.7,1016.5,SSW,196,5.1,5.8,59.6,0.0,,,0.0,54,0,n/a,2022-07-03T07:48:04Z
2022-07-03 09:54:00,20.8,15.7,1016.5,SW,219,8.6,9.9,59.5,0.0,,,0.0,54,0,n/a,2022-07-03T07:54:00Z
2022-07-03 09:57:04,20.8,15.8,1016.5,SW,236,7,7.2,60,0.0,,,0.0,64,0,n/a,2022-07-03T07:57:04Z
2022-07-03 10:03:04,20.8,15.7,1016.5,South,176,1.9,2.6,59.8,0.0,,,0.0,60,0,n/a,2022-07-03T08:03:04Z
2022-07-03 10:09:00,21.1,15.8,1016.2,South,182,2.8,7.9,59.7,0.0,,,0.0,106,0,n/a,2022-07-03T08:09:00Z
2022-07-03 10:12:04,21.1,15.9,1016.5,South,180,2.5,2.6,59.8,0.0,,,0.0,528,0,n/a,2022-07-03T08:12:04Z
2022-07-03 10:18:04,21.3,15.7,1016.2,WSW,255,3.8,3.9,59.2,0.0,,,0.0,568,0,n/a,2022-07-03T08:18:04Z
2022-07-03 10:24:04,21.9,16.1,1016.2,WNW,282,4.7,5.2,60.1,0.0,,,0.0,560,0,n/a,2022-07-03T08:24:04Z
2022-07-03 10:27:04,21.7,15.9,1016.2,North,6,3.4,4.9,58.7,0.0,,,0.0,556,0.1,n/a,2022-07-03T08:27:04Z
2022-07-03 10:33:04,22.1,16.2,1016.5,SW,232,8.3,10.7,59.5,0.0,,,0.0,560,0.1,n/a,2022-07-03T08:33:04Z
2022-07-03 10:39:00,22.1,16.2,1016.5,SSW,211,6.4,8.8,59.2,0.0,,,0.0,534,0.1,n/a,2022-07-03T08:39:00Z
2022-07-03 10:42:04,22.4,16.5,1016.2,SW,225,6,6.5,59.5,0.0,,,0.0,134,0.1,n/a,2022-07-03T08:42:04Z
2022-07-03 10:48:04,22.7,16.1,1016.2,SSW,211,5.7,9.8,57.9,0.0,,,0.0,516,0.2,n/a,2022-07-03T08:48:04Z
2022-07-03 10:54:04,23.5,16.5,1016.5,SE,135,2.7,4.5,58.1,0.0,,,0.0,544,0.2,n/a,2022-07-03T08:54:04Z
2022-07-03 10:57:04,23.7,16.4,1016.2,ESE,112,0.6,0.7,56.9,0.0,,,0.0,548,0.2,n/a,2022-07-03T08:57:04Z
2022-07-03 11:03:04,24.2,16.7,1016.2,SW,216,4.8,5.3,56.5,0.0,,,0.0,550,0.2,n/a,2022-07-03T09:03:04Z
2022-07-03 11:09:04,24.5,16.8,1016.2,SSW,201,7.8,9.8,55.9,0.0,,,0.0,556,0.2,n/a,2022-07-03T09:09:04Z
2022-07-03 11:12:04,24.6,17.2,1016.2,SW,235,4.7,5.2,55.5,0.0,,,0.0,556,0.2,n/a,2022-07-03T09:12:04Z
2022-07-03 11:18:04,24.6,17.1,1016.0,SSW,206,4.5,5.8,55,0.0,,,0.0,562,0.2,n/a,2022-07-03T09:18:04Z
2022-07-03 11:24:04,24.7,17.4,1016.0,SSW,209,5.4,7.8,53.4,0.0,,,0.0,562,0.2,n/a,2022-07-03T09:24:04Z
2022-07-03 11:27:04,24.9,17.3,1016.0,South,180,8.6,8.7,52.7,0.0,,,0.0,568,0.2,n/a,2022-07-03T09:27:04Z
2022-07-03 11:33:04,24.8,17.6,1016.0,South,180,7.3,7.9,52.2,0.0,,,0.0,572,0.2,n/a,2022-07-03T09:33:04Z
2022-07-03 11:39:04,25.3,18,1016.0,SSW,202,7.3,7.5,51.3,0.0,,,0.0,572,0.3,n/a,2022-07-03T09:39:04Z
2022-07-03 11:42:04,25.5,17.7,1016.0,SW,225,4.6,4.7,50.5,0.0,,,0.0,576,0.3,n/a,2022-07-03T09:42:04Z
2022-07-03 11:48:04,25.8,18.4,1016.0,South,190,9,10.5,50.6,0.0,,,0.0,568,0.4,n/a,2022-07-03T09:48:04Z
2022-07-03 11:54:00,25.7,17.8,1016.0,WNW,292,3.3,4.7,47.7,0.0,,,0.0,576,0.4,n/a,2022-07-03T09:54:00Z
2022-07-03 11:57:04,26.1,17.7,1016.0,SW,225,6.8,7.1,46,0.0,,,0.0,576,0.4,n/a,2022-07-03T09:57:04Z
2022-07-03 12:03:05,26.6,17.9,1016.0,WNW,282,6.8,11.3,45.3,0.0,,,0.0,582,0.4,n/a,2022-07-03T10:03:05Z
2022-07-03 12:09:04,27,17.5,1015.7,West,275,8.6,10.4,43.3,0.0,,,0.0,578,0.4,n/a,2022-07-03T10:09:04Z
2022-07-03 12:18:04,27,17.5,1016.0,WSW,241,13.3,19.7,41.8,0.0,,,0.0,574,0.4,n/a,2022-07-03T10:18:04Z
2022-07-03 12:24:04,27.2,17.4,1015.7,WSW,243,9.7,10.5,40.4,0.0,,,0.0,562,0.4,n/a,2022-07-03T10:24:04Z
2022-07-03 12:27:01,27.3,17,1015.7,North,0,5.1,5.2,40,0.0,,,0.0,564,0.4,n/a,2022-07-03T10:27:01Z
2022-07-03 12:33:04,27.4,17.3,1016.0,WNW,299,4.9,8.5,39.4,0.0,,,0.0,554,0.4,n/a,2022-07-03T10:33:04Z
2022-07-03 12:39:04,27.4,17.1,1016.0,West,269,12.7,18.2,38.1,0.0,,,0.0,558,0.4,n/a,2022-07-03T10:39:04Z
2022-07-03 12:42:04,27.3,16.8,1015.7,West,281,13.5,14.4,37.5,0.0,,,0.0,544,0.4,n/a,2022-07-03T10:42:04Z
2022-07-03 12:48:04,27.8,17.9,1016.0,West,270,10.4,11.6,40,0.0,,,0.0,552,0.4,n/a,2022-07-03T10:48:04Z
2022-07-03 12:54:04,27.9,17.7,1015.7,SW,223,11.7,14.5,39.1,0.0,,,0.0,552,0.4,n/a,2022-07-03T10:54:04Z
2022-07-03 12:57:04,28,17.7,1015.7,West,275,10.7,11.8,38.6,0.0,,,0.0,554,0.3,n/a,2022-07-03T10:57:04Z
2022-07-03 13:03:04,28,17.2,1015.7,West,262,7.4,12.5,37.3,0.0,,,0.0,556,0.3,n/a,2022-07-03T11:03:04Z
2022-07-03 13:09:04,28.4,17.8,1015.7,NNW,337,5,8.5,38,0.0,,,0.0,558,0.3,n/a,2022-07-03T11:09:04Z
2022-07-03 13:12:04,28.4,16.8,1015.7,West,280,7,7.8,35.6,0.0,,,0.0,558,0.3,n/a,2022-07-03T11:12:04Z
2022-07-03 13:18:04,28.8,16.7,1015.7,WSW,247,12.5,13.8,34.7,0.0,,,0.0,568,0.3,n/a,2022-07-03T11:18:04Z
2022-07-03 13:24:05,29.1,17.6,1015.4,SW,226,9.3,9.8,36.2,0.0,,,0.0,578,0.3,n/a,2022-07-03T11:24:05Z
2022-07-03 13:27:01,28.7,17.1,1015.7,SW,225,10.3,10.3,35.2,0.0,,,0.0,574,0.3,n/a,2022-07-03T11:27:01Z
2022-07-03 13:33:01,29,17.7,1015.4,WSW,256,8.7,9.2,36.2,0.0,,,0.0,590,0.3,n/a,2022-07-03T11:33:01Z
2022-07-03 13:39:04,29.1,17.8,1015.4,SW,235,7.6,9.9,35.8,0.0,,,0.0,608,0.3,n/a,2022-07-03T11:39:04Z
2022-07-03 13:42:01,29.1,17.1,1015.4,SW,225,9.8,9.9,34.2,0.0,,,0.0,588,0.3,n/a,2022-07-03T11:42:01Z
2022-07-03 13:48:04,29.2,18,1015.4,SSW,192,10.4,13.1,36.3,0.0,,,0.0,586,0.3,n/a,2022-07-03T11:48:04Z
2022-07-03 13:54:04,29,17.6,1015.4,West,270,10.6,11.6,34.5,0.0,,,0.0,580,0.3,n/a,2022-07-03T11:54:04Z
2022-07-03 13:57:01,28.6,17.9,1015.2,NW,315,13,13,35.6,0.0,,,0.0,568,0.3,n/a,2022-07-03T11:57:01Z
2022-07-03 14:03:04,28.4,17.7,1015.2,SW,225,5.9,6.6,34.9,0.0,,,0.0,592,0.3,n/a,2022-07-03T12:03:04Z